地図

経路データ

SID SEASON NUMBER BASIN SUBBASIN NAME ISO_TIME NATURE LAT LON WMO_WIND WMO_PRES WMO_AGENCY TRACK_TYPE DIST2LAND LANDFALL IFLAG USA_AGENCY USA_ATCF_ID USA_LAT USA_LON USA_RECORD USA_STATUS USA_WIND USA_PRES USA_SSHS USA_R34_NE USA_R34_SE USA_R34_SW USA_R34_NW USA_R50_NE USA_R50_SE USA_R50_SW USA_R50_NW USA_R64_NE USA_R64_SE USA_R64_SW USA_R64_NW USA_POCI USA_ROCI USA_RMW USA_EYE TOKYO_LAT TOKYO_LON TOKYO_GRADE TOKYO_WIND TOKYO_PRES TOKYO_R50_DIR TOKYO_R50_LONG TOKYO_R50_SHORT TOKYO_R30_DIR TOKYO_R30_LONG TOKYO_R30_SHORT TOKYO_LAND CMA_LAT CMA_LON CMA_CAT CMA_WIND CMA_PRES HKO_LAT HKO_LON HKO_CAT HKO_WIND HKO_PRES NEWDELHI_LAT NEWDELHI_LON NEWDELHI_GRADE NEWDELHI_WIND NEWDELHI_PRES NEWDELHI_CI NEWDELHI_DP NEWDELHI_POCI REUNION_LAT REUNION_LON REUNION_TYPE REUNION_WIND REUNION_PRES REUNION_TNUM REUNION_CI REUNION_RMW REUNION_R34_NE REUNION_R34_SE REUNION_R34_SW REUNION_R34_NW REUNION_R50_NE REUNION_R50_SE REUNION_R50_SW REUNION_R50_NW REUNION_R64_NE REUNION_R64_SE REUNION_R64_SW REUNION_R64_NW BOM_LAT BOM_LON BOM_TYPE BOM_WIND BOM_PRES BOM_TNUM BOM_CI BOM_RMW BOM_R34_NE BOM_R34_SE BOM_R34_SW BOM_R34_NW BOM_R50_NE BOM_R50_SE BOM_R50_SW BOM_R50_NW BOM_R64_NE BOM_R64_SE BOM_R64_SW BOM_R64_NW BOM_ROCI BOM_POCI BOM_EYE BOM_POS_METHOD BOM_PRES_METHOD NADI_LAT NADI_LON NADI_CAT NADI_WIND NADI_PRES WELLINGTON_LAT WELLINGTON_LON WELLINGTON_WIND WELLINGTON_PRES DS824_LAT DS824_LON DS824_STAGE DS824_WIND DS824_PRES TD9636_LAT TD9636_LON TD9636_STAGE TD9636_WIND TD9636_PRES TD9635_LAT TD9635_LON TD9635_WIND TD9635_PRES TD9635_ROCI NEUMANN_LAT NEUMANN_LON NEUMANN_CLASS NEUMANN_WIND NEUMANN_PRES MLC_LAT MLC_LON MLC_CLASS MLC_WIND MLC_PRES USA_GUST BOM_GUST BOM_GUST_PER REUNION_GUST REUNION_GUST_PER USA_SEAHGT USA_SEARAD_NE USA_SEARAD_SE USA_SEARAD_SW USA_SEARAD_NW STORM_SPEED STORM_DIR
1971280N18276 1971 134 NA CS NOT_NAMED 1971-10-06 12:00:00 TS 17.5000 -84.5000 20 hurdat_atl main 180 179 O_____________ hurdat_atl AL201971 17.5000 -84.5000 TD 20 -1 5 290
1971280N18276 1971 134 NA CS NOT_NAMED 1971-10-06 15:00:00 TS 17.5876 -84.7500 main 190 190 P_____________ AL201971 17.5876 -84.7500 TD 22 -1 5 293
1971280N18276 1971 134 NA CS NOT_NAMED 1971-10-06 18:00:00 TS 17.7000 -85.0000 25 hurdat_atl main 201 201 O_____________ hurdat_atl AL201971 17.7000 -85.0000 TD 25 -1 5 299
1971280N18276 1971 134 NA CS NOT_NAMED 1971-10-06 21:00:00 TS 17.8500 -85.2500 main 212 212 P_____________ AL201971 17.8500 -85.2500 TD 25 -1 6 302
1971280N18276 1971 134 NA CS NOT_NAMED 1971-10-07 00:00:00 TS 18.0000 -85.5000 25 hurdat_atl main 235 218 O_____________ hurdat_atl AL201971 18.0000 -85.5000 TD 25 -1 5 298
1971280N18276 1971 134 NA CS NOT_NAMED 1971-10-07 03:00:00 TS 18.1000 -85.7501 main 208 184 P_____________ AL201971 18.1000 -85.7501 TD 25 -1 5 293
1971280N18276 1971 134 NA CS NOT_NAMED 1971-10-07 06:00:00 TS 18.2000 -86.0000 25 hurdat_atl main 184 161 O_____________ hurdat_atl AL201971 18.2000 -86.0000 TD 25 -1 5 298
1971280N18276 1971 134 NA CS NOT_NAMED 1971-10-07 09:00:00 TS 18.3500 -86.2500 main 161 124 P_____________ AL201971 18.3500 -86.2500 TD 25 -1 6 302
1971280N18276 1971 134 NA CS NOT_NAMED 1971-10-07 12:00:00 TS 18.5000 -86.5000 25 hurdat_atl main 124 100 O_____________ hurdat_atl AL201971 18.5000 -86.5000 TD 25 -1 5 298
1971280N18276 1971 134 NA CS NOT_NAMED 1971-10-07 15:00:00 TS 18.6000 -86.7501 main 90 67 P_____________ AL201971 18.6000 -86.7501 TD 25 -1 5 293
1971280N18276 1971 134 NA CS NOT_NAMED 1971-10-07 18:00:00 TS 18.7000 -87.0000 25 hurdat_atl main 67 43 O_____________ hurdat_atl AL201971 18.7000 -87.0000 TD 25 -1 5 297
1971280N18276 1971 134 NA CS NOT_NAMED 1971-10-07 21:00:00 TS 18.8425 -87.2500 main 33 10 P_____________ AL201971 18.8425 -87.2500 TD 22 -1 6 302
1971280N18276 1971 134 NA CS NOT_NAMED 1971-10-08 00:00:00 TS 19.0000 -87.5000 20 hurdat_atl main 10 0 O_____________ hurdat_atl AL201971 19.0000 -87.5000 TD 20 -1 6 304
1971280N18276 1971 134 NA NA NOT_NAMED 1971-10-08 03:00:00 TS 19.1575 -87.7500 main 0 0 P_____________ AL201971 19.1575 -87.7500 TD 20 -1 6 302
1971280N18276 1971 134 NA NA NOT_NAMED 1971-10-08 06:00:00 TS 19.3000 -88.0000 20 hurdat_atl main 0 0 O_____________ hurdat_atl AL201971 19.3000 -88.0000 TD 20 -1 5 298
1971280N18276 1971 134 NA NA NOT_NAMED 1971-10-08 09:00:00 TS 19.3999 -88.2426 main 0 0 P_____________ AL201971 19.3999 -88.2426 TD 20 -1 5 293
1971280N18276 1971 134 NA NA NOT_NAMED 1971-10-08 12:00:00 TS 19.5000 -88.5000 20 hurdat_atl main 0 0 O_____________ hurdat_atl AL201971 19.5000 -88.5000 TD 20 -1 6 294
1971280N18276 1971 134 NA NA NOT_NAMED 1971-10-08 15:00:00 TS 19.6350 -88.7925 main 0 0 P_____________ AL201971 19.6350 -88.7925 TD 20 -1 6 298
1971280N18276 1971 134 NA NA NOT_NAMED 1971-10-08 18:00:00 TS 19.8000 -89.1000 20 hurdat_atl main 0 0 O_____________ hurdat_atl AL201971 19.8000 -89.1000 TD 20 -1 7 302
1971280N18276 1971 134 NA NA NOT_NAMED 1971-10-08 21:00:00 TS 19.9925 -89.4000 main 0 0 P_____________ AL201971 19.9925 -89.4000 TD 20 -1 7 305
1971280N18276 1971 134 NA NA NOT_NAMED 1971-10-09 00:00:00 TS 20.2000 -89.7000 20 hurdat_atl main 0 0 O_____________ hurdat_atl AL201971 20.2000 -89.7000 TD 20 -1 7 306
1971280N18276 1971 134 NA NA NOT_NAMED 1971-10-09 03:00:00 TS 20.3999 -89.9926 main 0 0 P_____________ AL201971 20.3999 -89.9926 TD 20 -1 7 305
1971280N18276 1971 134 NA NA NOT_NAMED 1971-10-09 06:00:00 TS 20.6000 -90.3000 20 hurdat_atl main 0 0 O_____________ hurdat_atl AL201971 20.6000 -90.3000 TD 20 -1 8 300
1971280N18276 1971 134 NA GM NOT_NAMED 1971-10-09 09:00:00 TS 20.7927 -90.7322 main 31 31 P_____________ AL201971 20.7927 -90.7322 TD 20 -1 8 301
1971280N18276 1971 134 NA GM NOT_NAMED 1971-10-09 12:00:00 TS 21.0000 -91.0000 20 hurdat_atl main 66 61 O_____________ hurdat_atl AL201971 21.0000 -91.0000 TD 20 -1 5 347
1971280N18276 1971 134 NA GM NOT_NAMED 1971-10-09 15:00:00 TS 21.2425 -90.8403 main 53 45 P_____________ AL201971 21.2425 -90.8403 TD 22 -1 7 43
1971280N18276 1971 134 NA GM NOT_NAMED 1971-10-09 18:00:00 TS 21.5000 -90.5000 25 hurdat_atl main 49 49 O_____________ hurdat_atl AL201971 21.5000 -90.5000 TD 25 -1 8 47
1971280N18276 1971 134 NA GM NOT_NAMED 1971-10-09 21:00:00 TS 21.7500 -90.2499 main 63 63 P_____________ AL201971 21.7500 -90.2499 TD 25 -1 7 43
1971280N18276 1971 134 NA GM NOT_NAMED 1971-10-10 00:00:00 TS 22.0000 -90.0000 25 hurdat_atl main 90 90 O_____________ hurdat_atl AL201971 22.0000 -90.0000 TD 25 -1 7 43
1971280N18276 1971 134 NA GM NOT_NAMED 1971-10-10 03:00:00 TS 22.2500 -89.7499 main 108 108 P_____________ AL201971 22.2500 -89.7499 TD 25 -1 7 43
1971280N18276 1971 134 NA GM NOT_NAMED 1971-10-10 06:00:00 TS 22.5000 -89.5000 25 hurdat_atl main 135 135 O_____________ hurdat_atl AL201971 22.5000 -89.5000 TD 25 -1 7 40
1971280N18276 1971 134 NA GM NOT_NAMED 1971-10-10 09:00:00 TS 22.7647 -89.2873 main 162 157 P_____________ AL201971 22.7647 -89.2873 TD 25 -1 7 43
1971280N18276 1971 134 NA GM NOT_NAMED 1971-10-10 12:00:00 TS 23.0000 -89.0000 25 hurdat_atl main 172 170 O_____________ hurdat_atl AL201971 23.0000 -89.0000 TD 25 -1 8 60
1971280N18276 1971 134 NA GM NOT_NAMED 1971-10-10 15:00:00 TS 23.1576 -88.5373 main 190 190 P_____________ AL201971 23.1576 -88.5373 TD 25 -1 10 72
1971280N18276 1971 134 NA GM NOT_NAMED 1971-10-10 18:00:00 TS 23.3000 -88.0000 25 hurdat_atl main 201 201 O_____________ hurdat_atl AL201971 23.3000 -88.0000 TD 25 -1 10 71
1971280N18276 1971 134 NA GM NOT_NAMED 1971-10-10 21:00:00 TS 23.4923 -87.4999 main 224 224 P_____________ AL201971 23.4923 -87.4999 TD 25 -1 10 66
1971280N18276 1971 134 NA GM NOT_NAMED 1971-10-11 00:00:00 TS 23.7000 -87.0000 25 hurdat_atl main 245 245 O_____________ hurdat_atl AL201971 23.7000 -87.0000 TD 25 -1 10 66
1971280N18276 1971 134 NA GM NOT_NAMED 1971-10-11 03:00:00 TS 23.8998 -86.4998 main 271 256 P_____________ AL201971 23.8998 -86.4998 TD 25 -1 10 66
1971280N18276 1971 134 NA GM NOT_NAMED 1971-10-11 06:00:00 TS 24.1000 -86.0000 25 hurdat_atl main 256 233 O_____________ hurdat_atl AL201971 24.1000 -86.0000 TD 25 -1 11 67
1971280N18276 1971 134 NA GM NOT_NAMED 1971-10-11 09:00:00 TS 24.3153 -85.4402 main 228 220 P_____________ AL201971 24.3153 -85.4402 TD 25 -1 10 66
1971280N18276 1971 134 NA GM NOT_NAMED 1971-10-11 12:00:00 TS 24.5000 -85.0000 25 hurdat_atl main 225 221 O_____________ hurdat_atl AL201971 24.5000 -85.0000 TD 25 -1 6 62
1971280N18276 1971 134 NA GM NOT_NAMED 1971-10-11 15:00:00 TS 24.6072 -84.8472 main 227 227 P_____________ AL201971 24.6072 -84.8472 TD 25 -1 3 42
1971280N18276 1971 134 NA GM NOT_NAMED 1971-10-11 18:00:00 TS 24.7000 -84.8000 25 hurdat_atl main 237 237 O_____________ hurdat_atl AL201971 24.7000 -84.8000 TD 25 -1 3 36
1971280N18276 1971 134 NA GM NOT_NAMED 1971-10-11 21:00:00 TS 24.8425 -84.6575 main 245 245 P_____________ AL201971 24.8425 -84.6575 TD 25 -1 4 42
1971280N18276 1971 134 NA GM NOT_NAMED 1971-10-12 00:00:00 TS 25.0000 -84.5000 25 hurdat_atl main 258 258 O_____________ hurdat_atl AL201971 25.0000 -84.5000 TD 25 -1 4 42
1971280N18276 1971 134 NA GM NOT_NAMED 1971-10-12 03:00:00 TS 25.1575 -84.3425 main 268 253 P_____________ AL201971 25.1575 -84.3425 TD 25 -1 4 42
1971280N18276 1971 134 NA GM NOT_NAMED 1971-10-12 06:00:00 TS 25.3000 -84.2000 25 hurdat_atl main 253 238 O_____________ hurdat_atl AL201971 25.3000 -84.2000 TD 25 -1 3 47
1971280N18276 1971 134 NA GM NOT_NAMED 1971-10-12 09:00:00 TS 25.3850 -84.0700 main 238 223 P_____________ AL201971 25.3850 -84.0700 TD 25 -1 3 42
1971280N18276 1971 134 NA GM NOT_NAMED 1971-10-12 12:00:00 TS 25.5000 -84.0000 25 hurdat_atl main 223 209 O_____________ hurdat_atl AL201971 25.5000 -84.0000 TD 25 -1 3 7
1971280N18276 1971 134 NA GM NOT_NAMED 1971-10-12 15:00:00 TS 25.7275 -84.0349 main 209 200 P_____________ AL201971 25.7275 -84.0349 TD 25 -1 5 350
1971280N18276 1971 134 NA GM NOT_NAMED 1971-10-12 18:00:00 TS 26.0000 -84.1000 25 hurdat_atl main 200 191 O_____________ hurdat_atl AL201971 26.0000 -84.1000 TD 25 -1 5 355
1971280N18276 1971 134 NA GM NOT_NAMED 1971-10-12 21:00:00 TS 26.2500 -84.0926 main 191 173 P_____________ AL201971 26.2500 -84.0926 TD 25 -1 5 2
1971280N18276 1971 134 NA GM NOT_NAMED 1971-10-13 00:00:00 TS 26.5000 -84.1000 25 hurdat_atl main 173 162 O_____________ hurdat_atl AL201971 26.5000 -84.1000 TD 25 -1 5 351
1971280N18276 1971 134 NA GM NOT_NAMED 1971-10-13 03:00:00 TS 26.7500 -84.1850 main 167 164 P_____________ AL201971 26.7500 -84.1850 TD 25 -1 5 340
1971280N18276 1971 134 NA GM NOT_NAMED 1971-10-13 06:00:00 TS 27.0000 -84.3000 25 hurdat_atl main 170 164 O_____________ hurdat_atl AL201971 27.0000 -84.3000 TD 25 -1 5 338
1971280N18276 1971 134 NA GM NOT_NAMED 1971-10-13 09:00:00 TS 27.2425 -84.4075 main 167 162 P_____________ AL201971 27.2425 -84.4075 TD 25 -1 5 340
1971280N18276 1971 134 NA GM NOT_NAMED 1971-10-13 12:00:00 TS 27.5000 -84.5000 25 hurdat_atl main 163 158 O_____________ hurdat_atl AL201971 27.5000 -84.5000 TD 25 -1 6 347
1971280N18276 1971 134 NA GM NOT_NAMED 1971-10-13 15:00:00 TS 27.7925 -84.5576 main 167 166 P_____________ AL201971 27.7925 -84.5576 TD 25 -1 6 352
1971280N18276 1971 134 NA GM NOT_NAMED 1971-10-13 18:00:00 TS 28.1000 -84.6000 25 hurdat_atl main 168 148 O_____________ hurdat_atl AL201971 28.1000 -84.6000 TD 25 -1 6 352
1971280N18276 1971 134 NA GM NOT_NAMED 1971-10-13 21:00:00 TS 28.4000 -84.6500 main 146 113 P_____________ AL201971 28.4000 -84.6500 TD 25 -1 6 352
1971280N18276 1971 134 NA GM NOT_NAMED 1971-10-14 00:00:00 TS 28.7000 -84.7000 25 hurdat_atl main 113 80 O_____________ hurdat_atl AL201971 28.7000 -84.7000 TD 25 -1 6 353
1971280N18276 1971 134 NA GM NOT_NAMED 1971-10-14 03:00:00 TS 28.9925 -84.7426 main 80 45 P_____________ AL201971 28.9925 -84.7426 TD 25 -1 6 352
1971280N18276 1971 134 NA GM NOT_NAMED 1971-10-14 06:00:00 TS 29.3000 -84.8000 25 hurdat_atl main 45 11 O_____________ hurdat_atl AL201971 29.3000 -84.8000 TD 25 -1 7 348
1971280N18276 1971 134 NA GM NOT_NAMED 1971-10-14 09:00:00 TS 29.6400 -84.8898 main 11 0 P_____________ AL201971 29.6400 -84.8898 TD -1 7 346
1971280N18276 1971 134 NA NA NOT_NAMED 1971-10-14 12:00:00 TS 30.0000 -85.0000 hurdat_atl main 0 O_____________ hurdat_atl AL201971 30.0000 -85.0000 TD -1 7 345

IBTrACS Databaseについて

本データベースは、米国NOAAが公開する1842年以降の世界の熱帯低気圧のベストトラックデータアーカイブInternational Best Track Archive for Climate Stewardship (IBTrACS)を、ウェブで閲覧しやすい形式に変換したものです。

最終更新日:2021-10-19